Time;durP1;ratioP1;P1;durP2;ratioP2;P2;SDS_P1;SDS_P2;PMS_P1;PMS_P2;Temp;Humidity;BMP_temperature;BMP_pressure;BME280_temperature;BME280_humidity;BME280_pressure;Samples;Min_cycle;Max_cycle;Signal;HPM_P1;HPM_P2
2021/04/30 00:00:26;;;;;;;5.30;2.15;;;;;14.10;100980.00;;;;5074702;28;20202;-77
2021/04/30 00:02:53;;;;;;;3.75;2.30;;;;;14.10;100973.00;;;;5065928;28;20237;-77
2021/04/30 00:05:20;;;;;;;2.92;2.20;;;;;14.10;100972.00;;;;5070318;28;20576;-77
2021/04/30 00:07:46;;;;;;;5.43;2.20;;;;;14.10;100974.00;;;;5066265;28;20742;-77
2021/04/30 00:10:13;;;;;;;5.53;2.47;;;;;14.10;100967.00;;;;5070431;28;20207;-77
2021/04/30 00:12:40;;;;;;;5.78;2.50;;;;;14.10;100970.00;;;;5071190;28;20195;-77
2021/04/30 00:15:08;;;;;;;3.33;2.33;;;;;14.10;100968.00;;;;5067902;28;20217;-77
2021/04/30 00:17:35;;;;;;;4.15;2.03;;;;;14.10;100973.00;;;;5072795;28;20203;-77
2021/04/30 00:20:03;;;;;;;8.85;2.40;;;;;14.10;100969.00;;;;5066584;28;20214;-77
2021/04/30 00:22:29;;;;;;;4.90;2.03;;;;;14.10;100970.00;;;;5068724;28;20628;-77
2021/04/30 00:24:57;;;;;;;11.15;2.92;;;;;14.10;100968.00;;;;5069376;28;20294;-77
2021/04/30 00:27:23;;;;;;;2.83;1.77;;;;;14.10;100971.00;;;;5070968;28;20214;-77
2021/04/30 00:29:50;;;;;;;6.18;2.20;;;;;14.10;100969.00;;;;5069808;28;20927;-77
2021/04/30 00:32:17;;;;;;;5.63;2.55;;;;;14.10;100970.00;;;;5069905;28;20695;-77
2021/04/30 00:34:45;;;;;;;4.88;2.17;;;;;14.10;100976.00;;;;5070978;28;20206;-78
2021/04/30 00:37:11;;;;;;;5.60;2.38;;;;;14.10;100970.00;;;;5071104;28;20202;-77
2021/04/30 00:39:38;;;;;;;4.85;2.40;;;;;14.10;100973.00;;;;5071084;28;20191;-77
2021/04/30 00:42:05;;;;;;;4.82;2.60;;;;;14.10;100971.00;;;;5070026;28;20203;-77
2021/04/30 00:44:32;;;;;;;5.40;2.70;;;;;14.10;100969.00;;;;5070526;28;20234;-78
2021/04/30 00:47:00;;;;;;;5.50;2.55;;;;;14.10;100974.00;;;;5072037;28;20264;-77
2021/04/30 00:49:26;;;;;;;6.45;2.20;;;;;14.10;100971.00;;;;5079950;28;20202;-77
2021/04/30 00:51:54;;;;;;;4.38;2.20;;;;;14.00;100974.00;;;;5070666;28;20186;-77
2021/04/30 00:54:21;;;;;;;3.08;2.10;;;;;14.10;100971.00;;;;5070045;28;20199;-77
2021/04/30 00:56:48;;;;;;;4.45;2.40;;;;;14.10;100969.00;;;;5070565;28;20681;-77
2021/04/30 00:59:14;;;;;;;4.97;2.50;;;;;14.10;100972.00;;;;5070785;28;20210;-77
2021/04/30 01:01:41;;;;;;;5.05;2.50;;;;;14.10;100975.00;;;;5079174;28;20679;-76
2021/04/30 01:04:08;;;;;;;5.68;1.92;;;;;14.10;100977.00;;;;5072778;28;20514;-76
2021/04/30 01:06:36;;;;;;;3.58;1.77;;;;;14.10;100974.00;;;;5069621;28;20195;-77
2021/04/30 01:09:05;;;;;;;5.43;1.98;;;;;14.10;100984.00;;;;5069816;28;20214;-77
2021/04/30 01:11:34;;;;;;;3.20;2.05;;;;;14.00;100983.00;;;;5071975;28;20641;-76
2021/04/30 01:14:02;;;;;;;5.28;2.70;;;;;14.10;100981.00;;;;5080560;28;20199;-77
2021/04/30 01:16:29;;;;;;;6.13;2.15;;;;;14.10;100984.00;;;;5069663;28;20240;-77
2021/04/30 01:18:55;;;;;;;3.92;2.05;;;;;14.10;100983.00;;;;5087693;28;20946;-77
2021/04/30 01:21:24;;;;;;;3.42;1.60;;;;;14.10;100983.00;;;;5084454;28;20190;-77
2021/04/30 01:23:54;;;;;;;4.20;2.03;;;;;14.10;100992.00;;;;5083830;28;20198;-77
2021/04/30 01:26:21;;;;;;;3.75;1.92;;;;;14.10;100993.00;;;;5089648;28;20191;-77
2021/04/30 01:28:49;;;;;;;4.88;2.10;;;;;14.20;100989.00;;;;5068217;28;20886;-77
2021/04/30 01:31:17;;;;;;;3.13;1.83;;;;;14.20;100994.00;;;;5068951;28;20207;-77
2021/04/30 01:33:44;;;;;;;4.97;2.50;;;;;14.20;100991.00;;;;5072360;28;20195;-77
2021/04/30 01:36:11;;;;;;;3.80;1.70;;;;;14.20;100997.00;;;;5069994;28;20201;-77
2021/04/30 01:38:37;;;;;;;5.93;2.28;;;;;14.20;100999.00;;;;5067504;28;20194;-77
2021/04/30 01:41:05;;;;;;;3.58;2.30;;;;;14.20;100990.00;;;;5067440;28;20202;-77
2021/04/30 01:43:32;;;;;;;3.13;1.63;;;;;14.20;100995.00;;;;5067856;28;20462;-77
2021/04/30 01:46:04;;;;;;;4.30;1.95;;;;;14.20;101006.00;;;;5067580;28;20194;-77
2021/04/30 01:48:32;;;;;;;3.42;1.65;;;;;14.30;101001.00;;;;5066895;28;20226;-77
2021/04/30 01:51:00;;;;;;;2.50;1.73;;;;;14.30;101007.00;;;;5068200;28;20224;-77
2021/04/30 01:53:28;;;;;;;2.58;1.80;;;;;14.30;100999.00;;;;5074740;28;20672;-77
2021/04/30 01:55:56;;;;;;;4.03;2.25;;;;;14.30;101000.00;;;;5072364;28;20203;-77
2021/04/30 01:58:25;;;;;;;5.90;1.98;;;;;14.30;101001.00;;;;5069181;28;20203;-77
2021/04/30 02:00:55;;;;;;;5.07;2.45;;;;;14.20;101000.00;;;;5073119;28;20652;-77
2021/04/30 02:03:25;;;;;;;2.67;1.75;;;;;14.30;101008.00;;;;5073859;28;20202;-77
2021/04/30 02:05:52;;;;;;;5.20;2.20;;;;;14.30;101005.00;;;;5068051;28;20414;-77
2021/04/30 02:08:20;;;;;;;4.28;1.90;;;;;14.30;101007.00;;;;5068575;28;20223;-77
2021/04/30 02:10:47;;;;;;;3.85;2.00;;;;;14.30;101009.00;;;;5076976;28;20246;-76
2021/04/30 02:13:16;;;;;;;3.95;2.15;;;;;14.30;101001.00;;;;5077103;28;20613;-77
2021/04/30 02:15:45;;;;;;;4.63;1.67;;;;;14.30;101006.00;;;;5083685;28;20225;-77
2021/04/30 02:18:12;;;;;;;2.15;1.90;;;;;14.30;101001.00;;;;5076442;28;20198;-76
2021/04/30 02:20:39;;;;;;;4.95;2.00;;;;;14.30;101000.00;;;;5074330;28;20574;-77
2021/04/30 02:23:06;;;;;;;3.50;1.95;;;;;14.30;101002.00;;;;5069908;28;20264;-77
2021/04/30 02:25:33;;;;;;;3.92;2.03;;;;;14.30;100997.00;;;;5068230;28;20199;-77
2021/04/30 02:28:02;;;;;;;2.60;1.80;;;;;14.30;100998.00;;;;5069150;28;20218;-77
2021/04/30 02:30:31;;;;;;;5.95;2.45;;;;;14.30;101008.00;;;;5068189;28;20667;-77
2021/04/30 02:33:00;;;;;;;3.97;1.85;;;;;14.30;101005.00;;;;5070386;28;20245;-76
2021/04/30 02:35:28;;;;;;;2.83;1.98;;;;;14.30;101008.00;;;;5087148;28;20206;-77
2021/04/30 02:37:56;;;;;;;3.45;2.10;;;;;14.30;101003.00;;;;5079983;28;20206;-76
2021/04/30 02:40:25;;;;;;;4.20;1.70;;;;;14.30;101005.00;;;;5068437;28;20793;-76
2021/04/30 02:42:53;;;;;;;3.80;1.63;;;;;14.40;101005.00;;;;5069199;28;20852;-77
2021/04/30 02:45:21;;;;;;;6.88;2.15;;;;;14.40;101008.00;;;;5067943;28;20700;-77
2021/04/30 02:47:49;;;;;;;3.17;1.95;;;;;14.40;101013.00;;;;5069213;28;20211;-77
2021/04/30 02:50:20;;;;;;;3.78;1.88;;;;;14.30;101012.00;;;;5067952;28;20195;-77
2021/04/30 02:52:47;;;;;;;7.60;2.30;;;;;14.40;101014.00;;;;5074376;28;20210;-77
2021/04/30 02:55:16;;;;;;;5.00;2.20;;;;;14.40;101014.00;;;;5066785;28;20212;-76
2021/04/30 02:57:43;;;;;;;4.00;1.67;;;;;14.40;101022.00;;;;5068686;28;20202;-76
2021/04/30 03:00:11;;;;;;;2.22;1.65;;;;;14.40;101019.00;;;;5068158;28;20202;-77
2021/04/30 03:02:38;;;;;;;4.03;1.83;;;;;14.40;101018.00;;;;5069670;28;20198;-77
2021/04/30 03:05:06;;;;;;;5.97;1.65;;;;;14.40;101015.00;;;;5069085;28;20202;-76
2021/04/30 03:07:34;;;;;;;3.22;1.67;;;;;14.40;101020.00;;;;5068250;28;20214;-76
2021/04/30 03:10:01;;;;;;;2.80;1.58;;;;;14.40;101013.00;;;;5074225;28;20207;-77
2021/04/30 03:12:27;;;;;;;2.67;1.95;;;;;14.40;101015.00;;;;5068534;28;20195;-77
2021/04/30 03:14:54;;;;;;;3.38;1.70;;;;;14.40;101014.00;;;;5073806;28;20209;-77
2021/04/30 03:17:21;;;;;;;3.72;1.90;;;;;14.40;101002.00;;;;5072710;28;20247;-77
2021/04/30 03:19:47;;;;;;;7.22;2.08;;;;;14.40;101013.00;;;;5082962;28;20195;-77
2021/04/30 03:22:14;;;;;;;4.72;2.38;;;;;14.40;101005.00;;;;5073167;28;20205;-77
2021/04/30 03:24:42;;;;;;;4.78;1.83;;;;;14.40;101010.00;;;;5073175;28;20195;-77
2021/04/30 03:27:09;;;;;;;4.22;1.90;;;;;14.40;101014.00;;;;5085349;28;20222;-77
2021/04/30 03:29:36;;;;;;;1.98;1.73;;;;;14.40;101012.00;;;;5081606;28;20199;-77
2021/04/30 03:32:03;;;;;;;4.68;2.13;;;;;14.40;101014.00;;;;5072349;28;20206;-77
2021/04/30 03:34:30;;;;;;;3.45;2.60;;;;;14.40;101016.00;;;;5070575;28;20199;-77
2021/04/30 03:36:57;;;;;;;4.50;1.83;;;;;14.40;101015.00;;;;5071622;28;20630;-77
2021/04/30 03:39:23;;;;;;;4.93;2.08;;;;;14.40;101016.00;;;;5071997;28;20264;-77
2021/04/30 03:41:51;;;;;;;5.75;1.73;;;;;14.40;101015.00;;;;5072091;28;20203;-77
2021/04/30 03:44:18;;;;;;;5.22;2.10;;;;;14.40;101023.00;;;;5069707;28;20651;-77
2021/04/30 03:46:44;;;;;;;2.97;1.50;;;;;14.40;101017.00;;;;5070837;28;20634;-77
2021/04/30 03:49:11;;;;;;;3.50;1.88;;;;;14.40;101020.00;;;;5071418;28;20195;-77
2021/04/30 03:51:38;;;;;;;3.67;2.05;;;;;14.40;101017.00;;;;5071663;28;20199;-77
2021/04/30 03:54:05;;;;;;;4.65;2.10;;;;;14.40;101020.00;;;;5070823;28;20198;-77
2021/04/30 03:56:32;;;;;;;3.10;1.77;;;;;14.40;101018.00;;;;5071957;28;20198;-77
2021/04/30 03:58:59;;;;;;;3.65;1.92;;;;;14.40;101024.00;;;;5071351;28;20199;-76
2021/04/30 04:01:26;;;;;;;5.80;2.33;;;;;14.40;101019.00;;;;5070032;28;20191;-77
2021/04/30 04:03:54;;;;;;;3.88;2.20;;;;;14.40;101017.00;;;;5068797;28;20206;-77
2021/04/30 04:06:20;;;;;;;3.55;2.28;;;;;14.40;101027.00;;;;5070809;28;20205;-78
2021/04/30 04:08:47;;;;;;;3.85;2.25;;;;;14.40;101025.00;;;;5071215;28;20615;-77
2021/04/30 04:11:14;;;;;;;4.53;2.45;;;;;14.40;101028.00;;;;5071111;28;20523;-77
2021/04/30 04:13:41;;;;;;;4.00;2.17;;;;;14.40;101025.00;;;;5073852;28;20568;-77
2021/04/30 04:16:08;;;;;;;5.93;2.67;;;;;14.40;101013.00;;;;5077196;28;20202;-76
2021/04/30 04:18:35;;;;;;;3.83;2.25;;;;;14.40;101017.00;;;;5088413;28;20199;-77
2021/04/30 04:21:02;;;;;;;6.13;2.60;;;;;14.40;101011.00;;;;5070173;28;20229;-77
2021/04/30 04:23:29;;;;;;;3.22;2.40;;;;;14.40;101015.00;;;;5070171;28;20717;-77
2021/04/30 04:25:55;;;;;;;4.43;2.28;;;;;14.40;101020.00;;;;5071154;28;20191;-77
2021/04/30 04:28:22;;;;;;;3.72;2.17;;;;;14.40;101021.00;;;;5069767;28;20219;-77
2021/04/30 04:30:52;;;;;;;7.15;2.20;;;;;14.40;101020.00;;;;5070077;28;20696;-77
2021/04/30 04:33:19;;;;;;;5.55;2.47;;;;;14.40;101025.00;;;;5069541;28;20191;-77
2021/04/30 04:35:46;;;;;;;4.50;2.08;;;;;14.40;101024.00;;;;5071195;28;20195;-78
2021/04/30 04:38:13;;;;;;;5.50;2.50;;;;;14.40;101028.00;;;;5070753;28;20203;-77
2021/04/30 04:40:40;;;;;;;4.45;2.40;;;;;14.40;101022.00;;;;5070723;28;20198;-77
2021/04/30 04:43:07;;;;;;;4.00;2.17;;;;;14.40;101022.00;;;;5071750;28;20212;-77
2021/04/30 04:45:33;;;;;;;4.22;2.28;;;;;14.40;101031.00;;;;5070545;28;20713;-77
2021/04/30 04:48:00;;;;;;;3.35;2.60;;;;;14.40;101028.00;;;;5070000;28;20218;-77
2021/04/30 04:50:28;;;;;;;3.00;2.47;;;;;14.40;101040.00;;;;5070387;28;20202;-77
2021/04/30 04:52:54;;;;;;;5.63;2.25;;;;;14.50;101043.00;;;;5073340;28;20207;-77
2021/04/30 04:55:21;;;;;;;3.58;2.58;;;;;14.50;101040.00;;;;5080323;28;20203;-77
2021/04/30 04:57:48;;;;;;;3.95;2.30;;;;;14.50;101048.00;;;;5075513;28;20199;-77
2021/04/30 05:00:16;;;;;;;5.15;2.20;;;;;14.50;101047.00;;;;5071406;28;20202;-77
2021/04/30 05:02:43;;;;;;;5.75;2.78;;;;;14.50;101052.00;;;;5084914;28;20202;-76
2021/04/30 05:05:10;;;;;;;5.63;2.95;;;;;14.50;101046.00;;;;5074474;28;20252;-76
2021/04/30 05:07:38;;;;;;;3.85;2.95;;;;;14.50;101046.00;;;;5088735;28;20550;-76
2021/04/30 05:10:05;;;;;;;6.35;3.35;;;;;14.50;101042.00;;;;5070291;28;20199;-77
2021/04/30 05:12:32;;;;;;;5.90;2.58;;;;;14.50;101049.00;;;;5071344;28;20190;-77
2021/04/30 05:14:58;;;;;;;4.13;3.10;;;;;14.50;101048.00;;;;5075675;28;20217;-77
2021/04/30 05:17:25;;;;;;;6.20;3.15;;;;;14.60;101046.00;;;;5074123;28;20194;-77
2021/04/30 05:19:52;;;;;;;8.25;3.50;;;;;14.60;101046.00;;;;5090073;28;20700;-77
2021/04/30 05:22:19;;;;;;;3.92;3.13;;;;;14.60;101051.00;;;;5086187;28;20195;-76
2021/04/30 05:24:46;;;;;;;4.18;2.63;;;;;14.60;101051.00;;;;5078612;28;20218;-77
2021/04/30 05:27:13;;;;;;;3.85;3.03;;;;;14.60;101054.00;;;;5078622;28;20601;-77
2021/04/30 05:29:42;;;;;;;6.20;3.38;;;;;14.60;101051.00;;;;5073314;28;20203;-77
2021/04/30 05:32:09;;;;;;;6.40;3.58;;;;;14.60;101055.00;;;;5074053;28;20195;-77
2021/04/30 05:34:36;;;;;;;4.80;3.65;;;;;14.60;101052.00;;;;5081872;28;20190;-77
2021/04/30 05:37:03;;;;;;;4.07;3.20;;;;;14.60;101053.00;;;;5079100;28;20222;-76
2021/04/30 05:39:30;;;;;;;5.53;4.13;;;;;14.60;101050.00;;;;5081679;28;20567;-77
2021/04/30 05:41:58;;;;;;;4.72;3.70;;;;;14.60;101055.00;;;;5079210;28;20207;-77
2021/04/30 05:44:25;;;;;;;5.93;3.75;;;;;14.60;101051.00;;;;5077119;28;20227;-76
2021/04/30 05:46:51;;;;;;;5.55;3.95;;;;;14.70;101063.00;;;;5074590;28;20544;-76
2021/04/30 05:49:18;;;;;;;5.45;3.97;;;;;14.70;101064.00;;;;5069742;28;20225;-76
2021/04/30 05:51:45;;;;;;;6.57;4.10;;;;;14.70;101067.00;;;;5076285;28;20610;-76
2021/04/30 05:54:12;;;;;;;5.63;3.50;;;;;14.70;101072.00;;;;5068399;28;20202;-76
2021/04/30 05:56:39;;;;;;;7.00;3.90;;;;;14.70;101075.00;;;;5067908;28;20203;-76
2021/04/30 05:59:07;;;;;;;4.60;3.92;;;;;14.70;101080.00;;;;5075050;28;20241;-76
2021/04/30 06:01:34;;;;;;;6.13;4.10;;;;;14.70;101076.00;;;;5086948;28;20217;-76
2021/04/30 06:04:00;;;;;;;6.80;4.22;;;;;14.70;101078.00;;;;5070541;28;20190;-76
2021/04/30 06:06:27;;;;;;;9.20;4.28;;;;;14.70;101082.00;;;;5068142;28;20206;-77
2021/04/30 06:08:54;;;;;;;4.63;3.78;;;;;14.80;101076.00;;;;5070918;28;20226;-76
2021/04/30 06:11:20;;;;;;;5.55;4.25;;;;;14.80;101075.00;;;;5077444;28;20195;-76
2021/04/30 06:13:47;;;;;;;5.70;4.15;;;;;14.80;101086.00;;;;5071427;28;20199;-76
2021/04/30 06:16:15;;;;;;;3.97;3.60;;;;;14.80;101086.00;;;;5068743;28;20513;-76
2021/04/30 06:18:42;;;;;;;5.75;4.22;;;;;14.80;101087.00;;;;5068343;28;20629;-76
2021/04/30 06:21:10;;;;;;;8.38;4.70;;;;;14.80;101085.00;;;;5067612;28;20198;-76
2021/04/30 06:23:37;;;;;;;5.63;4.07;;;;;14.90;101093.00;;;;5068965;28;20314;-76
2021/04/30 06:26:04;;;;;;;7.25;4.35;;;;;14.90;101100.00;;;;5071605;28;20201;-76
2021/04/30 06:28:30;;;;;;;6.43;4.45;;;;;14.90;101099.00;;;;5088099;28;20218;-76
2021/04/30 06:30:57;;;;;;;6.57;3.92;;;;;14.90;101103.00;;;;5088222;28;20202;-76
2021/04/30 06:33:25;;;;;;;6.13;4.28;;;;;14.90;101102.00;;;;5079814;28;20206;-76
2021/04/30 06:35:52;;;;;;;8.05;4.43;;;;;14.90;101096.00;;;;5088805;28;20209;-76
2021/04/30 06:38:18;;;;;;;5.68;4.10;;;;;14.90;101096.00;;;;5088750;28;20549;-76
2021/04/30 06:40:45;;;;;;;4.88;3.78;;;;;15.00;101093.00;;;;5088329;28;20670;-76
2021/04/30 06:43:12;;;;;;;5.45;4.45;;;;;15.00;101103.00;;;;5082723;28;20530;-76
2021/04/30 06:45:38;;;;;;;6.10;4.03;;;;;15.00;101094.00;;;;5087024;28;20194;-76
2021/04/30 06:48:06;;;;;;;6.50;4.70;;;;;15.00;101091.00;;;;5081975;28;20485;-75
2021/04/30 06:50:34;;;;;;;6.35;3.72;;;;;15.00;101099.00;;;;5076388;28;20264;-75
2021/04/30 06:53:01;;;;;;;5.57;4.30;;;;;15.00;101095.00;;;;5086209;28;20206;-76
2021/04/30 06:55:28;;;;;;;7.15;3.83;;;;;15.00;101102.00;;;;5088365;28;20218;-76
2021/04/30 06:57:54;;;;;;;6.20;4.00;;;;;15.00;101104.00;;;;5074201;28;20203;-75
2021/04/30 07:00:22;;;;;;;4.85;3.67;;;;;15.10;101106.00;;;;5076458;28;20187;-76
2021/04/30 07:02:49;;;;;;;4.38;3.97;;;;;15.10;101100.00;;;;5088950;28;20208;-75
2021/04/30 07:05:15;;;;;;;5.05;4.13;;;;;15.10;101105.00;;;;5086708;28;20383;-75
2021/04/30 07:07:43;;;;;;;8.70;4.60;;;;;15.10;101105.00;;;;5074469;28;20637;-76
2021/04/30 07:10:11;;;;;;;5.32;4.60;;;;;15.10;101111.00;;;;5084059;28;20199;-76
2021/04/30 07:12:38;;;;;;;5.43;4.65;;;;;15.10;101116.00;;;;5086393;28;20248;-76
2021/04/30 07:15:07;;;;;;;5.10;4.13;;;;;15.10;101120.00;;;;5083024;28;20198;-76
2021/04/30 07:17:34;;;;;;;8.18;5.03;;;;;15.20;101115.00;;;;5084904;28;20194;-76
2021/04/30 07:20:01;;;;;;;6.05;4.32;;;;;15.20;101121.00;;;;5087374;28;20578;-76
2021/04/30 07:22:27;;;;;;;5.93;4.57;;;;;15.20;101127.00;;;;5080710;28;20194;-76
2021/04/30 07:24:55;;;;;;;7.43;5.43;;;;;15.20;101125.00;;;;5072660;28;20549;-75
2021/04/30 07:27:23;;;;;;;5.50;4.70;;;;;15.30;101128.00;;;;5071370;28;20557;-76
2021/04/30 07:29:50;;;;;;;7.55;4.97;;;;;15.30;101132.00;;;;5080614;28;20199;-76
2021/04/30 07:32:16;;;;;;;7.15;5.13;;;;;15.30;101127.00;;;;5068197;28;20195;-75
2021/04/30 07:34:43;;;;;;;5.78;4.70;;;;;15.30;101123.00;;;;5068707;28;20736;-75
2021/04/30 07:37:10;;;;;;;7.68;5.82;;;;;15.30;101120.00;;;;5078449;28;20191;-76
2021/04/30 07:39:39;;;;;;;6.55;4.97;;;;;15.30;101120.00;;;;5070598;28;20198;-77
2021/04/30 07:42:08;;;;;;;7.38;5.13;;;;;15.40;101127.00;;;;5081606;28;20202;-75
2021/04/30 07:44:35;;;;;;;7.82;5.15;;;;;15.30;101116.00;;;;5067180;28;20223;-75
2021/04/30 07:47:02;;;;;;;7.25;5.32;;;;;15.40;101122.00;;;;5080379;28;20202;-75
2021/04/30 07:49:28;;;;;;;6.40;4.63;;;;;15.40;101121.00;;;;5087670;28;20230;-74
2021/04/30 07:51:55;;;;;;;7.45;4.97;;;;;15.40;101119.00;;;;5087878;28;20277;-74
2021/04/30 07:54:22;;;;;;;6.03;4.65;;;;;15.40;101122.00;;;;5078110;28;20652;-74
2021/04/30 07:56:50;;;;;;;6.55;5.43;;;;;15.40;101127.00;;;;5088329;28;20206;-74
2021/04/30 07:59:18;;;;;;;7.25;5.75;;;;;15.40;101127.00;;;;5070709;28;20681;-75
2021/04/30 08:01:44;;;;;;;7.20;5.28;;;;;15.50;101125.00;;;;5073481;28;20627;-74
2021/04/30 08:04:11;;;;;;;7.15;4.45;;;;;15.50;101137.00;;;;5075775;28;20515;-75
2021/04/30 08:06:38;;;;;;;6.15;5.15;;;;;15.60;101130.00;;;;5091432;28;20719;-75
2021/04/30 08:09:05;;;;;;;6.15;4.97;;;;;15.60;101139.00;;;;5082872;28;20256;-75
2021/04/30 08:11:34;;;;;;;8.60;6.03;;;;;15.60;101134.00;;;;5071313;28;20195;-75
2021/04/30 08:14:01;;;;;;;8.25;5.70;;;;;15.70;101135.00;;;;5074841;28;20194;-74
2021/04/30 08:16:29;;;;;;;7.15;5.35;;;;;15.70;101133.00;;;;5080228;28;20198;-75
2021/04/30 08:18:56;;;;;;;6.72;6.05;;;;;15.80;101131.00;;;;5072852;28;20207;-75
2021/04/30 08:21:22;;;;;;;7.95;5.78;;;;;15.80;101131.00;;;;5070790;28;20754;-75
2021/04/30 08:23:49;;;;;;;7.57;6.15;;;;;15.90;101125.00;;;;5071011;28;20207;-75
2021/04/30 08:26:16;;;;;;;7.63;5.95;;;;;15.90;101130.00;;;;5079752;28;20202;-75
2021/04/30 08:28:42;;;;;;;8.73;6.28;;;;;16.00;101136.00;;;;5090572;28;20225;-75
2021/04/30 08:31:09;;;;;;;8.80;5.72;;;;;16.00;101125.00;;;;5087609;28;20190;-75
2021/04/30 08:33:37;;;;;;;9.80;6.90;;;;;16.00;101131.00;;;;5081570;28;20579;-76
2021/04/30 08:36:04;;;;;;;8.15;6.65;;;;;16.00;101126.00;;;;5087667;28;20195;-76
2021/04/30 08:38:31;;;;;;;9.23;6.30;;;;;16.10;101132.00;;;;5078662;28;20194;-75
2021/04/30 08:40:59;;;;;;;7.65;5.72;;;;;16.10;101133.00;;;;5091277;28;20267;-75
2021/04/30 08:43:25;;;;;;;6.55;5.85;;;;;16.10;101129.00;;;;5076030;28;20244;-75
2021/04/30 08:45:54;;;;;;;10.07;7.10;;;;;16.10;101144.00;;;;5070600;28;20210;-75
2021/04/30 08:48:24;;;;;;;7.68;6.53;;;;;16.10;101138.00;;;;5082580;28;20598;-75
2021/04/30 08:50:53;;;;;;;8.43;6.55;;;;;16.10;101141.00;;;;5090487;28;20732;-75
2021/04/30 08:53:21;;;;;;;7.70;6.55;;;;;16.10;101144.00;;;;5088631;28;20668;-75
2021/04/30 08:55:50;;;;;;;10.55;6.18;;;;;16.10;101155.00;;;;5075367;28;20643;-75
2021/04/30 08:58:22;;;;;;;10.63;7.15;;;;;16.10;101152.00;;;;5070195;28;20191;-75
2021/04/30 09:00:49;;;;;;;8.18;5.80;;;;;16.10;101148.00;;;;5070085;28;20195;-75
2021/04/30 09:03:16;;;;;;;8.05;6.20;;;;;16.10;101149.00;;;;5087016;28;20230;-75
2021/04/30 09:05:47;;;;;;;8.90;5.85;;;;;16.10;101149.00;;;;5088559;28;20198;-75
2021/04/30 09:08:15;;;;;;;5.60;4.90;;;;;16.10;101149.00;;;;5084149;28;20230;-75
2021/04/30 09:10:44;;;;;;;7.28;5.70;;;;;16.20;101158.00;;;;5069470;28;20237;-75
2021/04/30 09:13:13;;;;;;;8.02;5.75;;;;;16.20;101154.00;;;;5078341;28;20195;-75
2021/04/30 09:15:41;;;;;;;7.97;5.40;;;;;16.20;101160.00;;;;5073877;28;20195;-75
2021/04/30 09:18:23;;;;;;;8.18;5.28;;;;;16.20;101157.00;;;;5069833;28;20198;-75
2021/04/30 09:20:51;;;;;;;7.85;5.25;;;;;16.30;101162.00;;;;5069593;28;20191;-75
2021/04/30 09:23:36;;;;;;;7.20;5.05;;;;;16.30;101154.00;;;;5069900;28;20207;-75
2021/04/30 09:26:20;;;;;;;6.88;5.50;;;;;16.50;101155.00;;;;5069491;28;20199;-75
2021/04/30 09:28:59;;;;;;;6.97;5.07;;;;;16.50;101161.00;;;;5085669;28;20711;-76
2021/04/30 09:31:33;;;;;;;8.00;5.57;;;;;16.60;101166.00;;;;5077734;28;20201;-75
2021/04/30 09:34:16;;;;;;;6.80;5.88;;;;;16.70;101169.00;;;;5069720;28;20665;-75
2021/04/30 09:37:01;;;;;;;10.40;6.00;;;;;16.70;101168.00;;;;5069421;28;20202;-75
2021/04/30 09:39:30;;;;;;;8.15;5.45;;;;;16.90;101169.00;;;;5071534;28;20201;-75
2021/04/30 09:42:07;;;;;;;8.18;5.97;;;;;16.90;101163.00;;;;5074628;28;20217;-75
2021/04/30 09:44:35;;;;;;;7.03;6.10;;;;;17.00;101163.00;;;;5069379;28;20734;-75
2021/04/30 09:47:16;;;;;;;7.80;5.80;;;;;16.90;101168.00;;;;5069610;28;20248;-75
2021/04/30 09:49:44;;;;;;;7.93;6.20;;;;;17.10;101172.00;;;;5071846;28;20218;-75
2021/04/30 09:52:12;;;;;;;10.35;5.55;;;;;17.10;101177.00;;;;5072119;28;20603;-75
2021/04/30 09:54:41;;;;;;;8.45;6.43;;;;;17.10;101169.00;;;;5075528;28;20213;-75
2021/04/30 09:57:14;;;;;;;7.93;6.70;;;;;17.20;101174.00;;;;5088480;28;20209;-75
2021/04/30 09:59:42;;;;;;;7.97;4.97;;;;;17.20;101178.00;;;;5078703;28;20808;-75
2021/04/30 10:02:15;;;;;;;6.63;4.70;;;;;17.20;101176.00;;;;5084864;28;20202;-75
2021/04/30 10:04:43;;;;;;;5.75;4.18;;;;;17.20;101178.00;;;;5071470;28;20600;-76
2021/04/30 10:07:12;;;;;;;6.40;4.82;;;;;17.20;101180.00;;;;5068979;28;20203;-75
2021/04/30 10:09:41;;;;;;;6.38;4.22;;;;;17.30;101182.00;;;;5070347;28;20235;-75
2021/04/30 10:12:21;;;;;;;4.95;3.85;;;;;17.20;101193.00;;;;5068413;28;20610;-75
2021/04/30 10:14:49;;;;;;;4.30;3.75;;;;;17.30;101193.00;;;;5069309;28;20211;-75
2021/04/30 10:17:17;;;;;;;5.07;3.90;;;;;17.30;101186.00;;;;5068744;28;20204;-76
2021/04/30 10:19:45;;;;;;;4.63;4.00;;;;;17.30;101175.00;;;;5068580;28;20191;-76
2021/04/30 10:22:16;;;;;;;5.22;4.00;;;;;17.30;101183.00;;;;5073069;28;20648;-76
2021/04/30 10:24:48;;;;;;;4.53;4.13;;;;;17.40;101184.00;;;;5071981;28;20237;-76
2021/04/30 10:27:17;;;;;;;4.32;3.75;;;;;17.40;101185.00;;;;5071210;28;20203;-77
2021/04/30 10:29:54;;;;;;;3.97;3.58;;;;;17.50;101179.00;;;;5069392;28;20346;-77
2021/04/30 10:32:24;;;;;;;4.18;3.17;;;;;17.60;101173.00;;;;5073068;28;20195;-77
2021/04/30 10:34:52;;;;;;;4.60;3.35;;;;;17.60;101170.00;;;;5086272;28;20199;-77
2021/04/30 10:37:25;;;;;;;3.53;3.00;;;;;17.70;101171.00;;;;5088339;28;20276;-75
2021/04/30 10:39:58;;;;;;;4.13;3.30;;;;;17.80;101177.00;;;;5071661;28;20201;-77
2021/04/30 10:42:31;;;;;;;2.88;2.55;;;;;17.90;101176.00;;;;5088964;28;20186;-76
2021/04/30 10:45:02;;;;;;;3.90;3.13;;;;;18.00;101169.00;;;;5088717;28;20263;-75
2021/04/30 10:47:29;;;;;;;3.08;2.78;;;;;18.20;101162.00;;;;5088226;28;20198;-75
2021/04/30 10:50:19;;;;;;;3.17;2.88;;;;;18.20;101166.00;;;;5089142;28;20240;-75
2021/04/30 10:52:47;;;;;;;3.13;2.58;;;;;18.40;101164.00;;;;5089361;28;20210;-75
2021/04/30 10:55:17;;;;;;;3.20;2.90;;;;;18.50;101166.00;;;;5088575;28;20273;-76
2021/04/30 10:57:49;;;;;;;3.13;2.83;;;;;18.60;101162.00;;;;5088935;28;20277;-75
2021/04/30 11:00:16;;;;;;;2.92;2.65;;;;;18.60;101167.00;;;;5089125;28;20210;-76
2021/04/30 11:02:43;;;;;;;4.50;3.45;;;;;18.70;101170.00;;;;5089710;28;20198;-76
2021/04/30 11:05:13;;;;;;;3.03;2.70;;;;;18.80;101173.00;;;;5088801;28;20259;-76
2021/04/30 11:07:43;;;;;;;2.75;2.47;;;;;18.90;101168.00;;;;5088314;28;20284;-76
2021/04/30 11:10:39;;;;;;;2.90;2.45;;;;;19.00;101166.00;;;;5088808;28;20582;-76
2021/04/30 11:13:17;;;;;;;4.43;2.95;;;;;19.10;101164.00;;;;5089211;28;20240;-76
2021/04/30 11:15:55;;;;;;;4.13;3.30;;;;;19.30;101161.00;;;;5088620;28;20204;-75
2021/04/30 11:18:23;;;;;;;3.95;2.83;;;;;19.40;101157.00;;;;5089478;28;20206;-76
2021/04/30 11:21:05;;;;;;;3.53;2.88;;;;;19.50;101164.00;;;;5088776;28;20209;-76
2021/04/30 11:23:39;;;;;;;4.22;3.00;;;;;19.50;101158.00;;;;5088244;28;20202;-76
2021/04/30 11:26:12;;;;;;;3.53;2.53;;;;;19.60;101160.00;;;;5088953;28;20206;-76
2021/04/30 11:29:08;;;;;;;3.25;2.70;;;;;19.50;101162.00;;;;5069896;28;20222;-76
2021/04/30 11:31:35;;;;;;;3.83;3.28;;;;;19.60;101158.00;;;;5068274;28;20648;-76
2021/04/30 11:34:21;;;;;;;4.25;3.03;;;;;19.50;101159.00;;;;5071207;28;20194;-75
2021/04/30 11:36:58;;;;;;;2.92;2.63;;;;;19.40;101158.00;;;;5077779;28;20244;-75
2021/04/30 11:39:29;;;;;;;3.03;2.45;;;;;19.50;101155.00;;;;5081892;28;20293;-75
2021/04/30 11:42:02;;;;;;;2.90;2.60;;;;;19.50;101162.00;;;;5083614;28;20194;-77
2021/04/30 11:44:29;;;;;;;3.80;3.05;;;;;19.60;101160.00;;;;5081467;28;20226;-75
2021/04/30 11:47:02;;;;;;;3.40;2.58;;;;;19.60;101157.00;;;;5076184;28;20249;-75
2021/04/30 11:49:29;;;;;;;3.83;3.05;;;;;19.70;101156.00;;;;5081894;28;21008;-75
2021/04/30 11:51:56;;;;;;;3.03;2.72;;;;;19.70;101163.00;;;;5086449;28;20248;-75
2021/04/30 11:54:28;;;;;;;2.55;2.33;;;;;19.60;101162.00;;;;5086894;28;20656;-75
2021/04/30 11:57:01;;;;;;;3.35;2.90;;;;;19.60;101156.00;;;;5077071;28;20210;-76
2021/04/30 11:59:29;;;;;;;3.53;2.70;;;;;19.70;101157.00;;;;5082160;28;20774;-75
2021/04/30 12:01:58;;;;;;;4.45;2.97;;;;;19.80;101164.00;;;;5086077;28;20238;-76
2021/04/30 12:04:40;;;;;;;3.03;2.72;;;;;19.70;101152.00;;;;5091951;28;20206;-77
2021/04/30 12:07:08;;;;;;;3.85;3.08;;;;;19.90;101154.00;;;;5091055;28;20197;-77
2021/04/30 12:09:35;;;;;;;3.42;3.00;;;;;20.00;101156.00;;;;5089786;28;20695;-77
2021/04/30 12:12:20;;;;;;;3.00;2.70;;;;;20.00;101158.00;;;;5084011;28;20206;-77
2021/04/30 12:14:50;;;;;;;3.75;2.88;;;;;20.20;101157.00;;;;5070663;28;20191;-78